createdAt,value
2019-02-07T00:01:27.582Z,-4.21
2019-02-07T00:04:32.963Z,-4.17
2019-02-07T00:07:38.177Z,-4.11
2019-02-07T00:10:43.612Z,-4.05
2019-02-07T00:13:48.695Z,-4.06
2019-02-07T00:16:53.884Z,-3.91
2019-02-07T00:19:59.117Z,-3.89
2019-02-07T00:23:04.650Z,-4.00
2019-02-07T00:26:10.249Z,-4.04
2019-02-07T00:29:15.663Z,-4.08
2019-02-07T00:32:20.919Z,-3.92
2019-02-07T00:35:26.306Z,-3.94
2019-02-07T00:38:31.445Z,-3.92
2019-02-07T00:41:36.571Z,-3.97
2019-02-07T00:44:50.543Z,-4.04
2019-02-07T00:47:49.267Z,-3.91
2019-02-07T00:50:54.325Z,-3.91
2019-02-07T00:53:59.468Z,-3.79
2019-02-07T00:57:04.662Z,-3.85
2019-02-07T01:00:21.348Z,-3.87
2019-02-07T01:03:26.430Z,-3.71
2019-02-07T01:06:31.629Z,-3.68
2019-02-07T01:09:36.761Z,-3.73
2019-02-07T01:12:42.007Z,-3.73
2019-02-07T01:15:47.245Z,-3.60
2019-02-07T01:18:52.434Z,-3.43
2019-02-07T01:21:57.560Z,-3.50
2019-02-07T01:25:02.716Z,-3.59
2019-02-07T01:28:08.194Z,-3.63
2019-02-07T01:31:13.314Z,-3.49
2019-02-07T01:34:18.429Z,-3.50
2019-02-07T01:37:23.741Z,-3.54
2019-02-07T01:40:28.906Z,-3.66
2019-02-07T01:43:33.994Z,-3.72
2019-02-07T01:46:39.099Z,-3.73
2019-02-07T01:49:44.205Z,-3.62
2019-02-07T01:52:49.364Z,-3.60
2019-02-07T01:55:55.671Z,-3.46
2019-02-07T01:59:00.745Z,-3.30
2019-02-07T02:02:05.933Z,-3.37
2019-02-07T02:05:12.009Z,-3.43
2019-02-07T02:08:18.122Z,-3.41
2019-02-07T02:11:23.237Z,-3.45
2019-02-07T02:14:28.496Z,-3.48
2019-02-07T02:17:33.919Z,-3.37
2019-02-07T02:20:39.066Z,-3.50
2019-02-07T02:23:44.169Z,-3.55
2019-02-07T02:26:49.304Z,-3.52
2019-02-07T02:29:54.508Z,-3.48
2019-02-07T02:32:59.807Z,-3.55
2019-02-07T02:36:04.957Z,-3.48
2019-02-07T02:39:10.593Z,-3.47
2019-02-07T02:42:15.684Z,-3.50
2019-02-07T02:45:21.022Z,-3.44
2019-02-07T02:48:26.209Z,-3.38
2019-02-07T02:51:31.310Z,-3.29
2019-02-07T02:54:42.829Z,-3.41
2019-02-07T02:57:48.312Z,-3.38
2019-02-07T03:01:21.768Z,-3.48
2019-02-07T03:04:37.688Z,-3.51
2019-02-07T03:08:10.826Z,-3.44
2019-02-07T03:11:44.477Z,-3.26
2019-02-07T03:15:07.317Z,-3.40
2019-02-07T03:18:30.510Z,-3.45
2019-02-07T03:21:45.799Z,-3.43
2019-02-07T03:25:08.723Z,-3.45
2019-02-07T03:28:31.714Z,-3.54
2019-02-07T03:31:48.957Z,-3.52
2019-02-07T03:35:12.073Z,-3.49
2019-02-07T03:38:35.052Z,-3.37
2019-02-07T03:41:59.018Z,-3.45
2019-02-07T03:45:22.456Z,-3.53
2019-02-07T03:48:46.604Z,-3.43
2019-02-07T03:52:10.672Z,-3.50
2019-02-07T03:55:29.007Z,-3.41
2019-02-07T03:59:05.454Z,-3.42
2019-02-07T04:02:32.861Z,-3.40
2019-02-07T04:05:55.888Z,-3.45
2019-02-07T04:09:19.989Z,-3.38
2019-02-07T04:12:42.883Z,-3.18
2019-02-07T04:15:59.182Z,-3.18
2019-02-07T04:19:17.959Z,-3.01
2019-02-07T04:22:48.812Z,-2.98
2019-02-07T04:26:11.735Z,-2.93
2019-02-07T04:29:51.009Z,-2.90
2019-02-07T04:33:24.200Z,-2.87
2019-02-07T04:36:52.856Z,-2.84
2019-02-07T04:40:12.977Z,-2.83
2019-02-07T04:43:37.525Z,-2.82
2019-02-07T04:47:20.073Z,-2.83
2019-02-07T04:50:42.536Z,-2.73
2019-02-07T04:54:05.351Z,-2.73
2019-02-07T04:57:26.562Z,-2.63
2019-02-07T05:01:00.511Z,-2.69
2019-02-07T05:04:36.713Z,-2.71
2019-02-07T05:07:58.196Z,-2.76
2019-02-07T05:11:16.648Z,-2.78
2019-02-07T05:14:44.317Z,-2.57
2019-02-07T05:18:14.628Z,-2.71
2019-02-07T05:21:39.285Z,-2.73
2019-02-07T05:25:03.732Z,-2.69
2019-02-07T05:28:31.325Z,-2.64
2019-02-07T05:31:58.733Z,-2.69
2019-02-07T05:35:22.661Z,-2.78
2019-02-07T05:38:47.162Z,-2.69
2019-02-07T05:42:11.278Z,-2.64
2019-02-07T05:45:23.324Z,-2.63
2019-02-07T05:48:43.985Z,-2.33
2019-02-07T05:52:11.081Z,-2.47
2019-02-07T05:55:30.042Z,-2.50
2019-02-07T05:58:54.118Z,-2.36
2019-02-07T06:02:18.180Z,-2.44
2019-02-07T06:05:51.273Z,-2.52
2019-02-07T06:09:09.765Z,-2.47
2019-02-07T06:12:39.808Z,-2.48
2019-02-07T06:16:02.629Z,-2.51
2019-02-07T06:19:17.113Z,-2.46
2019-02-07T06:22:38.398Z,-2.47
2019-02-07T06:26:01.324Z,-2.48
2019-02-07T06:29:26.314Z,-2.41
2019-02-07T06:33:03.179Z,-2.33
2019-02-07T06:36:27.203Z,-2.36
2019-02-07T06:39:49.811Z,-2.37
2019-02-07T06:43:13.880Z,-2.15
2019-02-07T06:46:37.015Z,-2.31
2019-02-07T06:50:07.604Z,-2.22
2019-02-07T06:53:30.510Z,-2.32
2019-02-07T06:57:10.118Z,-2.41
2019-02-07T07:00:28.849Z,-2.30
2019-02-07T07:03:49.330Z,-2.31
2019-02-07T07:07:12.799Z,-2.34
2019-02-07T07:10:36.089Z,-2.38
2019-02-07T07:14:00.212Z,-2.40
2019-02-07T07:17:27.568Z,-2.40
2019-02-07T07:20:43.076Z,-2.34
2019-02-07T07:24:13.004Z,-2.31
2019-02-07T07:27:49.208Z,-2.15
2019-02-07T07:31:16.676Z,-2.15
2019-02-07T07:34:47.322Z,-2.26
2019-02-07T07:38:14.319Z,-2.24
2019-02-07T07:41:44.575Z,-2.22
2019-02-07T07:45:20.821Z,-2.18
2019-02-07T07:48:34.810Z,-2.32
2019-02-07T07:52:01.944Z,-2.22
2019-02-07T07:55:32.634Z,-2.23
2019-02-07T07:58:59.711Z,-2.09
2019-02-07T08:02:31.744Z,-2.18
2019-02-07T08:05:44.606Z,-2.15
2019-02-07T08:08:58.130Z,-2.07
2019-02-07T08:12:21.111Z,-1.82
2019-02-07T08:16:03.392Z,-1.89
2019-02-07T08:19:27.909Z,-1.88
2019-02-07T08:22:53.374Z,-1.85
2019-02-07T08:26:30.193Z,-1.70
2019-02-07T08:29:57.388Z,-1.74
2019-02-07T08:33:21.617Z,-1.63
2019-02-07T08:36:39.489Z,-1.51
2019-02-07T08:40:06.334Z,-1.37
2019-02-07T08:43:29.554Z,-1.36
2019-02-07T08:47:05.823Z,-1.48
2019-02-07T08:50:31.067Z,-1.43
2019-02-07T08:53:54.244Z,-1.46
2019-02-07T08:57:24.793Z,-1.39
2019-02-07T09:00:47.838Z,-1.42
2019-02-07T09:04:18.316Z,-1.35
2019-02-07T09:07:36.206Z,-1.27
2019-02-07T09:11:03.212Z,-1.41
2019-02-07T09:14:30.874Z,-1.42
2019-02-07T09:17:44.072Z,-1.33
2019-02-07T09:21:13.976Z,-1.05
2019-02-07T09:24:36.887Z,-1.14
2019-02-07T09:28:04.110Z,-1.13
2019-02-07T09:31:36.155Z,-1.23
2019-02-07T09:34:49.657Z,-1.21
2019-02-07T09:38:19.956Z,-1.03
2019-02-07T09:41:53.140Z,-0.95
2019-02-07T09:45:16.035Z,-1.00
2019-02-07T09:48:49.342Z,-0.90
2019-02-07T09:52:16.407Z,-0.83
2019-02-07T09:55:38.823Z,-0.94
2019-02-07T09:59:03.435Z,-0.70
2019-02-07T10:02:18.188Z,-0.62
2019-02-07T10:05:30.464Z,-0.57
2019-02-07T10:09:09.728Z,-0.50
2019-02-07T10:12:39.790Z,-0.74
2019-02-07T10:16:19.317Z,-0.56
2019-02-07T10:19:42.042Z,-0.71
2019-02-07T10:23:15.824Z,-0.66
2019-02-07T10:26:46.018Z,-0.48
2019-02-07T10:30:05.245Z,-0.25
2019-02-07T10:33:22.060Z,-0.24
2019-02-07T10:36:47.622Z,-0.31
2019-02-07T10:40:24.004Z,-0.30
2019-02-07T10:43:39.054Z,-0.26
2019-02-07T10:47:01.846Z,-0.24
2019-02-07T10:50:15.724Z,-0.41
2019-02-07T10:53:58.244Z,-0.54
2019-02-07T10:57:21.386Z,-0.64
2019-02-07T11:00:57.955Z,-0.48
2019-02-07T11:04:21.316Z,-0.54
2019-02-07T11:07:44.560Z,-0.46
2019-02-07T11:11:18.023Z,-0.38
2019-02-07T11:14:51.383Z,-0.33
2019-02-07T11:18:21.640Z,-0.54
2019-02-07T11:21:44.268Z,-0.51
2019-02-07T11:25:07.032Z,-0.61
2019-02-07T11:28:29.680Z,-0.60
2019-02-07T11:31:47.233Z,-0.59
2019-02-07T11:35:14.149Z,-0.18
2019-02-07T11:38:50.241Z,-0.39
2019-02-07T11:42:14.417Z,-0.36
2019-02-07T11:45:36.149Z,-0.47
2019-02-07T11:48:52.389Z,-0.27
2019-02-07T11:52:07.209Z,-0.18
2019-02-07T11:55:34.246Z,0.00
2019-02-07T11:59:01.443Z,0.02
2019-02-07T12:02:25.554Z,-0.32
2019-02-07T12:05:47.606Z,-0.12
2019-02-07T12:09:12.473Z,-0.07
2019-02-07T12:12:45.726Z,0.02
2019-02-07T12:16:15.626Z,0.05
2019-02-07T12:19:40.406Z,0.39
2019-02-07T12:23:04.092Z,0.20
2019-02-07T12:26:26.765Z,0.28
2019-02-07T12:29:42.057Z,0.48
2019-02-07T12:33:06.167Z,0.16
2019-02-07T12:36:30.369Z,0.12
2019-02-07T12:39:53.710Z,0.05
2019-02-07T12:43:31.405Z,0.16
2019-02-07T12:47:07.607Z,0.27
2019-02-07T12:50:29.413Z,0.35
2019-02-07T12:54:02.821Z,0.32
2019-02-07T12:57:26.913Z,0.23
2019-02-07T13:01:02.503Z,0.39
2019-02-07T13:04:49.558Z,0.38
2019-02-07T13:08:06.541Z,0.27
2019-02-07T13:11:30.714Z,0.15
2019-02-07T13:15:10.075Z,0.03
2019-02-07T13:18:46.217Z,-0.02
2019-02-07T13:22:09.300Z,0.35
2019-02-07T13:25:29.725Z,0.41
2019-02-07T13:28:53.868Z,0.43
2019-02-07T13:32:23.920Z,0.43
2019-02-07T13:35:47.164Z,0.29
2019-02-07T13:39:16.105Z,0.32
2019-02-07T13:42:36.147Z,0.18
2019-02-07T13:45:59.156Z,0.31
2019-02-07T13:49:21.911Z,0.41
2019-02-07T13:52:44.629Z,0.55
2019-02-07T13:56:23.765Z,0.64
2019-02-07T13:59:56.848Z,0.24
2019-02-07T14:03:39.351Z,0.43
2019-02-07T14:07:02.128Z,0.73
2019-02-07T14:10:31.633Z,0.56
2019-02-07T14:14:08.162Z,0.51
2019-02-07T14:17:39.350Z,0.55
2019-02-07T14:21:02.095Z,0.73
2019-02-07T14:24:32.470Z,0.54
2019-02-07T14:27:51.428Z,0.71
2019-02-07T14:31:15.553Z,0.78
2019-02-07T14:34:38.384Z,0.78
2019-02-07T14:38:05.484Z,0.64
2019-02-07T14:41:37.115Z,0.66
2019-02-07T14:44:59.957Z,0.81
2019-02-07T14:48:05.485Z,0.70
2019-02-07T14:51:10.656Z,0.69
2019-02-07T14:54:15.784Z,0.61
2019-02-07T14:57:20.945Z,0.78
2019-02-07T15:00:27.735Z,0.95
2019-02-07T15:03:33.179Z,0.81
2019-02-07T15:06:38.382Z,0.75
2019-02-07T15:09:43.590Z,0.87
2019-02-07T15:12:49.415Z,0.88
2019-02-07T15:15:54.555Z,0.99
2019-02-07T15:19:00.128Z,1.00
2019-02-07T15:22:05.249Z,0.92
2019-02-07T15:25:10.887Z,1.20
2019-02-07T15:28:17.013Z,1.03
2019-02-07T15:31:22.201Z,0.89
2019-02-07T15:34:29.424Z,0.80
2019-02-07T15:37:34.348Z,0.80
2019-02-07T15:40:39.673Z,0.58
2019-02-07T15:43:44.814Z,0.61
2019-02-07T15:46:50.212Z,0.58
2019-02-07T15:49:57.023Z,0.60
2019-02-07T15:53:03.601Z,0.53
2019-02-07T15:56:08.770Z,0.46
2019-02-07T15:59:19.729Z,0.48
2019-02-07T16:02:35.923Z,0.50
2019-02-07T16:05:41.110Z,0.52
2019-02-07T16:08:46.320Z,0.45
2019-02-07T16:11:51.954Z,0.40
2019-02-07T16:14:57.180Z,0.37
2019-02-07T16:18:02.340Z,0.43
2019-02-07T16:21:07.469Z,0.44
2019-02-07T16:24:12.637Z,0.49
2019-02-07T16:27:17.786Z,0.47
2019-02-07T16:30:23.461Z,0.50
2019-02-07T16:33:28.615Z,0.48
2019-02-07T16:36:33.728Z,0.29
2019-02-07T16:39:38.907Z,0.35
2019-02-07T16:42:45.169Z,0.43
2019-02-07T16:45:50.349Z,0.47
2019-02-07T16:48:55.572Z,0.40
2019-02-07T16:52:01.129Z,0.39
2019-02-07T16:55:08.855Z,0.39
2019-02-07T16:58:14.015Z,0.42
2019-02-07T17:01:19.359Z,0.39
2019-02-07T17:04:25.695Z,0.42
2019-02-07T17:07:30.892Z,0.40
2019-02-07T17:10:36.647Z,0.39
2019-02-07T17:13:41.843Z,0.40
2019-02-07T17:16:46.994Z,0.33
2019-02-07T17:19:52.080Z,0.37
2019-02-07T17:22:57.764Z,0.26
2019-02-07T17:26:02.898Z,0.08
2019-02-07T17:29:08.095Z,-0.01
2019-02-07T17:32:13.311Z,-0.10
2019-02-07T17:35:18.861Z,-0.06
2019-02-07T17:38:24.154Z,-0.06
2019-02-07T17:41:29.663Z,-0.03
2019-02-07T17:44:34.898Z,-0.06
2019-02-07T17:47:40.136Z,-0.11
2019-02-07T17:50:45.564Z,-0.01
2019-02-07T17:53:50.724Z,-0.05
2019-02-07T17:56:55.915Z,-0.14
2019-02-07T18:00:01.224Z,-0.19
2019-02-07T18:03:07.935Z,-0.08
2019-02-07T18:06:13.472Z,-0.10
2019-02-07T18:09:18.758Z,-0.13
2019-02-07T18:12:23.884Z,-0.09
2019-02-07T18:15:29.064Z,-0.04
2019-02-07T18:18:34.257Z,0.04
2019-02-07T18:21:39.432Z,-0.10
2019-02-07T18:24:44.508Z,-0.16
2019-02-07T18:27:49.703Z,-0.18
2019-02-07T18:30:54.984Z,-0.25
2019-02-07T18:34:00.097Z,-0.31
2019-02-07T18:37:05.440Z,-0.26
2019-02-07T18:40:14.255Z,-0.25
2019-02-07T18:43:19.495Z,-0.27
2019-02-07T18:46:24.650Z,-0.25
2019-02-07T18:49:29.954Z,-0.25
2019-02-07T18:52:35.277Z,-0.23
2019-02-07T18:55:40.467Z,-0.28
2019-02-07T18:58:45.612Z,-0.23
2019-02-07T19:01:50.858Z,-0.29
2019-02-07T19:04:56.127Z,-0.47
2019-02-07T19:08:01.387Z,-0.52
2019-02-07T19:11:06.669Z,-0.49
2019-02-07T19:14:11.895Z,-0.55
2019-02-07T19:17:17.057Z,-0.63
2019-02-07T19:20:22.242Z,-0.62
2019-02-07T19:23:27.662Z,-0.73
2019-02-07T19:26:35.670Z,-0.76
2019-02-07T19:29:41.335Z,-0.76
2019-02-07T19:32:46.593Z,-0.82
2019-02-07T19:35:51.754Z,-0.92
2019-02-07T19:38:57.382Z,-1.06
2019-02-07T19:42:02.550Z,-1.12
2019-02-07T19:45:08.799Z,-1.19
2019-02-07T19:48:14.167Z,-1.26
2019-02-07T19:51:19.415Z,-1.23
2019-02-07T19:54:24.644Z,-1.17
2019-02-07T19:57:29.812Z,-1.26
2019-02-07T20:00:35.622Z,-1.26
2019-02-07T20:03:40.941Z,-1.31
2019-02-07T20:06:46.647Z,-1.37
2019-02-07T20:09:51.867Z,-1.39
2019-02-07T20:12:57.281Z,-1.43
2019-02-07T20:16:02.556Z,-1.47
2019-02-07T20:19:07.999Z,-1.46
2019-02-07T20:22:20.286Z,-1.47
2019-02-07T20:25:20.328Z,-1.52
2019-02-07T20:28:25.759Z,-1.55
2019-02-07T20:31:30.972Z,-1.64
2019-02-07T20:34:36.238Z,-1.62
2019-02-07T20:37:41.491Z,-1.68
2019-02-07T20:40:46.774Z,-1.59
2019-02-07T20:43:52.132Z,-1.52
2019-02-07T20:46:57.308Z,-1.53
2019-02-07T20:50:02.655Z,-1.45
2019-02-07T20:53:10.494Z,-1.43
2019-02-07T20:56:15.765Z,-1.47
2019-02-07T20:59:21.014Z,-1.44
2019-02-07T21:02:26.115Z,-1.33
2019-02-07T21:05:32.409Z,-1.36
2019-02-07T21:08:37.654Z,-1.33
2019-02-07T21:11:42.815Z,-1.36
2019-02-07T21:14:47.961Z,-1.20
2019-02-07T21:17:53.075Z,-1.12
2019-02-07T21:20:58.345Z,-1.17
2019-02-07T21:24:03.567Z,-1.12
2019-02-07T21:27:08.811Z,-1.20
2019-02-07T21:30:17.223Z,-1.20
2019-02-07T21:33:22.742Z,-1.27
2019-02-07T21:36:27.879Z,-1.32
2019-02-07T21:39:33.141Z,-1.31
2019-02-07T21:42:38.570Z,-1.20
2019-02-07T21:45:43.779Z,-1.12
2019-02-07T21:48:48.877Z,-1.15
2019-02-07T21:51:54.490Z,-0.95
2019-02-07T21:54:59.675Z,-1.14
2019-02-07T21:58:06.030Z,-1.22
2019-02-07T22:01:11.610Z,-1.14
2019-02-07T22:04:16.842Z,-1.15
2019-02-07T22:07:22.460Z,-1.22
2019-02-07T22:10:27.857Z,-1.14
2019-02-07T22:13:32.962Z,-1.16
2019-02-07T22:16:38.096Z,-1.04
2019-02-07T22:19:43.393Z,-1.08
2019-02-07T22:22:49.455Z,-1.13
2019-02-07T22:25:54.906Z,-1.13
2019-02-07T22:29:00.139Z,-1.17
2019-02-07T22:32:05.394Z,-1.27
2019-02-07T22:35:11.014Z,-1.20
2019-02-07T22:38:16.113Z,-1.22
2019-02-07T22:41:21.254Z,-1.38
2019-02-07T22:44:26.414Z,-1.37
2019-02-07T22:47:32.499Z,-1.34
2019-02-07T22:50:38.099Z,-1.35
2019-02-07T22:53:43.362Z,-1.28
2019-02-07T22:56:48.474Z,-1.20
2019-02-07T22:59:54.013Z,-1.20
2019-02-07T23:02:59.329Z,-1.24
2019-02-07T23:06:04.932Z,-1.24
2019-02-07T23:09:13.877Z,-1.23
2019-02-07T23:12:19.735Z,-1.28
2019-02-07T23:15:24.993Z,-1.26
2019-02-07T23:18:30.210Z,-1.25
2019-02-07T23:21:35.419Z,-1.28
2019-02-07T23:24:40.537Z,-1.29
2019-02-07T23:27:45.748Z,-1.36
2019-02-07T23:30:51.325Z,-1.42
2019-02-07T23:33:56.503Z,-1.40
2019-02-07T23:37:01.696Z,-1.39
2019-02-07T23:40:08.062Z,-1.50
2019-02-07T23:43:13.386Z,-1.43
2019-02-07T23:46:19.729Z,-1.53
2019-02-07T23:49:24.874Z,-1.44
2019-02-07T23:52:29.978Z,-1.46
2019-02-07T23:55:35.149Z,-1.54
2019-02-07T23:58:40.343Z,-1.54
